Woolrich, Pennsylvania
Current Conditions -  °F | °C
As of 4:54 PM on Sunday 23 Nov 2014 (Local Time) from KIPT Reporting Station
Clear Clear  
Wind Chill: 41°   Ceiling: Unl
Heat Index: 41°   Visibility: 10mi
Dew Point: 29°   Wind: 3mph
Humidity: 62%   Direction: 90°E
Pressure: 30.01"   Gusts: NA
Location:  41.19°N, 77.38°W
Report Text: KIPT 232154Z 09003KT 10SM CLR 05/M02 A3001 RMK AO2 SLP167 T00501017
Loading
Personal Weather Stations






























Interactive Weather Map New forecast layout! Learn more

10-Day Weather Forecast

Advertisements
Track Severe Weather on mobile